sensor_id;sensor_type;location;lat;lon;timestamp;P1;durP1;ratioP1;P2;durP2;ratioP2
13218;SDS011;6674;49.152;11.918;2024-03-25T00:02:14;6.20;;;4.70;;
13218;SDS011;6674;49.152;11.918;2024-03-25T00:04:40;5.30;;;4.40;;
13218;SDS011;6674;49.152;11.918;2024-03-25T00:07:06;5.60;;;4.23;;
13218;SDS011;6674;49.152;11.918;2024-03-25T00:09:32;4.90;;;4.40;;
13218;SDS011;6674;49.152;11.918;2024-03-25T00:11:59;4.93;;;4.30;;
13218;SDS011;6674;49.152;11.918;2024-03-25T00:14:24;4.33;;;3.93;;
13218;SDS011;6674;49.152;11.918;2024-03-25T00:16:52;4.60;;;3.50;;
13218;SDS011;6674;49.152;11.918;2024-03-25T00:19:18;5.03;;;4.47;;
13218;SDS011;6674;49.152;11.918;2024-03-25T00:21:44;5.80;;;3.97;;
13218;SDS011;6674;49.152;11.918;2024-03-25T00:24:09;6.70;;;4.63;;
13218;SDS011;6674;49.152;11.918;2024-03-25T00:26:37;4.80;;;4.27;;
13218;SDS011;6674;49.152;11.918;2024-03-25T00:29:02;4.37;;;3.97;;
13218;SDS011;6674;49.152;11.918;2024-03-25T00:31:28;4.37;;;3.97;;
13218;SDS011;6674;49.152;11.918;2024-03-25T00:33:55;5.03;;;4.03;;
13218;SDS011;6674;49.152;11.918;2024-03-25T00:36:22;5.40;;;3.83;;
13218;SDS011;6674;49.152;11.918;2024-03-25T00:38:49;4.30;;;3.90;;
13218;SDS011;6674;49.152;11.918;2024-03-25T00:41:15;6.37;;;4.27;;
13218;SDS011;6674;49.152;11.918;2024-03-25T00:43:40;5.80;;;4.13;;
13218;SDS011;6674;49.152;11.918;2024-03-25T00:46:08;5.40;;;4.30;;
13218;SDS011;6674;49.152;11.918;2024-03-25T00:48:34;5.03;;;4.17;;
13218;SDS011;6674;49.152;11.918;2024-03-25T00:51:01;5.60;;;4.80;;
13218;SDS011;6674;49.152;11.918;2024-03-25T00:53:27;5.83;;;4.47;;
13218;SDS011;6674;49.152;11.918;2024-03-25T00:55:53;5.73;;;3.90;;
13218;SDS011;6674;49.152;11.918;2024-03-25T00:58:18;5.37;;;4.33;;
13218;SDS011;6674;49.152;11.918;2024-03-25T01:00:45;8.17;;;4.50;;
13218;SDS011;6674;49.152;11.918;2024-03-25T01:03:10;5.30;;;4.43;;
13218;SDS011;6674;49.152;11.918;2024-03-25T01:05:37;6.23;;;3.77;;
13218;SDS011;6674;49.152;11.918;2024-03-25T01:08:04;4.47;;;4.07;;
13218;SDS011;6674;49.152;11.918;2024-03-25T01:10:30;5.97;;;4.37;;
13218;SDS011;6674;49.152;11.918;2024-03-25T01:12:56;5.23;;;4.43;;
13218;SDS011;6674;49.152;11.918;2024-03-25T01:15:23;5.00;;;4.60;;
13218;SDS011;6674;49.152;11.918;2024-03-25T01:17:48;6.10;;;4.73;;
13218;SDS011;6674;49.152;11.918;2024-03-25T01:20:15;5.70;;;4.70;;
13218;SDS011;6674;49.152;11.918;2024-03-25T01:22:40;6.17;;;4.77;;
13218;SDS011;6674;49.152;11.918;2024-03-25T01:25:08;6.57;;;4.80;;
13218;SDS011;6674;49.152;11.918;2024-03-25T01:27:33;6.00;;;4.70;;
13218;SDS011;6674;49.152;11.918;2024-03-25T01:30:00;5.13;;;4.60;;
13218;SDS011;6674;49.152;11.918;2024-03-25T01:32:26;5.77;;;4.73;;
13218;SDS011;6674;49.152;11.918;2024-03-25T01:34:54;6.27;;;5.03;;
13218;SDS011;6674;49.152;11.918;2024-03-25T01:37:19;6.60;;;4.53;;
13218;SDS011;6674;49.152;11.918;2024-03-25T01:39:46;5.73;;;4.70;;
13218;SDS011;6674;49.152;11.918;2024-03-25T01:42:14;5.60;;;4.90;;
13218;SDS011;6674;49.152;11.918;2024-03-25T01:44:41;5.70;;;5.03;;
13218;SDS011;6674;49.152;11.918;2024-03-25T01:47:06;5.17;;;4.30;;
13218;SDS011;6674;49.152;11.918;2024-03-25T01:49:33;5.63;;;4.60;;
13218;SDS011;6674;49.152;11.918;2024-03-25T01:51:59;5.27;;;4.77;;
13218;SDS011;6674;49.152;11.918;2024-03-25T01:54:25;4.60;;;4.10;;
13218;SDS011;6674;49.152;11.918;2024-03-25T01:56:51;6.97;;;4.60;;
13218;SDS011;6674;49.152;11.918;2024-03-25T01:59:20;6.30;;;5.07;;
13218;SDS011;6674;49.152;11.918;2024-03-25T02:01:45;6.23;;;5.00;;
13218;SDS011;6674;49.152;11.918;2024-03-25T02:04:12;6.07;;;5.20;;
13218;SDS011;6674;49.152;11.918;2024-03-25T02:06:37;4.77;;;4.10;;
13218;SDS011;6674;49.152;11.918;2024-03-25T02:09:04;5.00;;;4.20;;
13218;SDS011;6674;49.152;11.918;2024-03-25T02:11:30;4.90;;;4.43;;
13218;SDS011;6674;49.152;11.918;2024-03-25T02:13:57;6.50;;;4.40;;
13218;SDS011;6674;49.152;11.918;2024-03-25T02:16:24;5.13;;;4.20;;
13218;SDS011;6674;49.152;11.918;2024-03-25T02:18:50;5.73;;;4.57;;
13218;SDS011;6674;49.152;11.918;2024-03-25T02:21:15;5.40;;;4.43;;
13218;SDS011;6674;49.152;11.918;2024-03-25T02:23:42;6.30;;;4.90;;
13218;SDS011;6674;49.152;11.918;2024-03-25T02:26:11;5.30;;;4.43;;
13218;SDS011;6674;49.152;11.918;2024-03-25T02:28:37;4.43;;;3.97;;
13218;SDS011;6674;49.152;11.918;2024-03-25T02:31:03;6.00;;;4.63;;
13218;SDS011;6674;49.152;11.918;2024-03-25T02:33:29;5.70;;;4.23;;
13218;SDS011;6674;49.152;11.918;2024-03-25T02:35:55;5.03;;;4.23;;
13218;SDS011;6674;49.152;11.918;2024-03-25T02:38:21;4.60;;;4.20;;
13218;SDS011;6674;49.152;11.918;2024-03-25T02:40:46;6.17;;;4.70;;
13218;SDS011;6674;49.152;11.918;2024-03-25T02:43:14;5.00;;;4.40;;
13218;SDS011;6674;49.152;11.918;2024-03-25T02:45:40;5.03;;;4.47;;
13218;SDS011;6674;49.152;11.918;2024-03-25T02:48:06;5.07;;;4.47;;
13218;SDS011;6674;49.152;11.918;2024-03-25T02:50:31;5.47;;;4.33;;
13218;SDS011;6674;49.152;11.918;2024-03-25T02:52:59;5.93;;;5.00;;
13218;SDS011;6674;49.152;11.918;2024-03-25T02:55:24;5.67;;;4.23;;
13218;SDS011;6674;49.152;11.918;2024-03-25T02:57:52;5.87;;;4.73;;
13218;SDS011;6674;49.152;11.918;2024-03-25T03:00:19;6.03;;;4.70;;
13218;SDS011;6674;49.152;11.918;2024-03-25T03:02:46;5.20;;;4.37;;
13218;SDS011;6674;49.152;11.918;2024-03-25T03:05:12;5.50;;;4.53;;
13218;SDS011;6674;49.152;11.918;2024-03-25T03:07:38;5.77;;;4.33;;
13218;SDS011;6674;49.152;11.918;2024-03-25T03:10:04;7.07;;;4.47;;
13218;SDS011;6674;49.152;11.918;2024-03-25T03:12:30;5.87;;;5.00;;
13218;SDS011;6674;49.152;11.918;2024-03-25T03:14:57;5.33;;;4.80;;
13218;SDS011;6674;49.152;11.918;2024-03-25T03:17:25;6.83;;;4.67;;
13218;SDS011;6674;49.152;11.918;2024-03-25T03:19:50;5.90;;;4.33;;
13218;SDS011;6674;49.152;11.918;2024-03-25T03:22:16;4.83;;;4.27;;
13218;SDS011;6674;49.152;11.918;2024-03-25T03:24:42;5.47;;;4.40;;
13218;SDS011;6674;49.152;11.918;2024-03-25T03:27:08;6.23;;;4.57;;
13218;SDS011;6674;49.152;11.918;2024-03-25T03:29:34;6.00;;;4.90;;
13218;SDS011;6674;49.152;11.918;2024-03-25T03:32:00;5.97;;;4.80;;
13218;SDS011;6674;49.152;11.918;2024-03-25T03:34:27;5.23;;;4.50;;
13218;SDS011;6674;49.152;11.918;2024-03-25T03:36:53;6.57;;;4.73;;
13218;SDS011;6674;49.152;11.918;2024-03-25T03:39:19;6.97;;;5.57;;
13218;SDS011;6674;49.152;11.918;2024-03-25T03:41:45;6.70;;;4.80;;
13218;SDS011;6674;49.152;11.918;2024-03-25T03:44:11;5.83;;;4.60;;
13218;SDS011;6674;49.152;11.918;2024-03-25T03:46:38;5.73;;;4.90;;
13218;SDS011;6674;49.152;11.918;2024-03-25T03:49:03;6.10;;;5.50;;
13218;SDS011;6674;49.152;11.918;2024-03-25T03:51:31;6.13;;;5.20;;
13218;SDS011;6674;49.152;11.918;2024-03-25T03:53:56;7.57;;;5.10;;
13218;SDS011;6674;49.152;11.918;2024-03-25T03:56:23;5.93;;;5.13;;
13218;SDS011;6674;49.152;11.918;2024-03-25T03:58:48;7.13;;;5.00;;
13218;SDS011;6674;49.152;11.918;2024-03-25T04:01:15;6.10;;;5.53;;
13218;SDS011;6674;49.152;11.918;2024-03-25T04:03:41;6.87;;;5.57;;
13218;SDS011;6674;49.152;11.918;2024-03-25T04:06:08;7.03;;;5.50;;
13218;SDS011;6674;49.152;11.918;2024-03-25T04:08:35;5.70;;;5.10;;
13218;SDS011;6674;49.152;11.918;2024-03-25T04:11:01;6.37;;;5.67;;
13218;SDS011;6674;49.152;11.918;2024-03-25T04:13:27;6.17;;;5.17;;
13218;SDS011;6674;49.152;11.918;2024-03-25T04:15:53;6.27;;;5.27;;
13218;SDS011;6674;49.152;11.918;2024-03-25T04:18:19;5.97;;;5.33;;
13218;SDS011;6674;49.152;11.918;2024-03-25T04:20:45;7.50;;;5.10;;
13218;SDS011;6674;49.152;11.918;2024-03-25T04:23:11;6.60;;;5.57;;
13218;SDS011;6674;49.152;11.918;2024-03-25T04:25:39;6.77;;;5.23;;
13218;SDS011;6674;49.152;11.918;2024-03-25T04:28:05;5.60;;;5.00;;
13218;SDS011;6674;49.152;11.918;2024-03-25T04:30:31;5.63;;;5.00;;
13218;SDS011;6674;49.152;11.918;2024-03-25T04:32:57;7.50;;;5.47;;
13218;SDS011;6674;49.152;11.918;2024-03-25T04:35:24;5.47;;;4.90;;
13218;SDS011;6674;49.152;11.918;2024-03-25T04:37:49;6.10;;;5.20;;
13218;SDS011;6674;49.152;11.918;2024-03-25T04:40:17;5.47;;;4.67;;
13218;SDS011;6674;49.152;11.918;2024-03-25T04:42:45;6.33;;;5.27;;
13218;SDS011;6674;49.152;11.918;2024-03-25T04:45:10;6.53;;;5.40;;
13218;SDS011;6674;49.152;11.918;2024-03-25T04:47:36;6.43;;;5.00;;
13218;SDS011;6674;49.152;11.918;2024-03-25T04:50:02;7.30;;;5.97;;
13218;SDS011;6674;49.152;11.918;2024-03-25T04:52:27;6.70;;;5.20;;
13218;SDS011;6674;49.152;11.918;2024-03-25T04:54:53;6.07;;;5.10;;
13218;SDS011;6674;49.152;11.918;2024-03-25T04:57:18;7.47;;;5.33;;
13218;SDS011;6674;49.152;11.918;2024-03-25T04:59:45;5.50;;;5.00;;
13218;SDS011;6674;49.152;11.918;2024-03-25T05:02:10;7.03;;;4.90;;
13218;SDS011;6674;49.152;11.918;2024-03-25T05:04:36;7.37;;;5.30;;
13218;SDS011;6674;49.152;11.918;2024-03-25T05:07:01;6.37;;;4.90;;
13218;SDS011;6674;49.152;11.918;2024-03-25T05:09:27;5.30;;;4.80;;
13218;SDS011;6674;49.152;11.918;2024-03-25T05:11:52;5.03;;;4.53;;
13218;SDS011;6674;49.152;11.918;2024-03-25T05:14:18;7.93;;;5.40;;
13218;SDS011;6674;49.152;11.918;2024-03-25T05:16:45;5.53;;;4.63;;
13218;SDS011;6674;49.152;11.918;2024-03-25T05:19:10;6.43;;;5.07;;
13218;SDS011;6674;49.152;11.918;2024-03-25T05:21:36;5.43;;;4.80;;
13218;SDS011;6674;49.152;11.918;2024-03-25T05:24:01;6.53;;;5.20;;
13218;SDS011;6674;49.152;11.918;2024-03-25T05:26:27;6.60;;;4.70;;
13218;SDS011;6674;49.152;11.918;2024-03-25T05:28:52;5.57;;;4.80;;
13218;SDS011;6674;49.152;11.918;2024-03-25T05:31:18;6.73;;;4.80;;
13218;SDS011;6674;49.152;11.918;2024-03-25T05:33:45;6.43;;;4.70;;
13218;SDS011;6674;49.152;11.918;2024-03-25T05:36:10;5.37;;;4.77;;
13218;SDS011;6674;49.152;11.918;2024-03-25T05:38:37;5.67;;;5.10;;
13218;SDS011;6674;49.152;11.918;2024-03-25T05:41:02;5.60;;;5.10;;
13218;SDS011;6674;49.152;11.918;2024-03-25T05:43:28;5.93;;;4.90;;
13218;SDS011;6674;49.152;11.918;2024-03-25T05:45:53;7.33;;;4.90;;
13218;SDS011;6674;49.152;11.918;2024-03-25T05:48:19;6.33;;;4.80;;
13218;SDS011;6674;49.152;11.918;2024-03-25T05:50:46;7.23;;;5.00;;
13218;SDS011;6674;49.152;11.918;2024-03-25T05:53:11;7.80;;;4.60;;
13218;SDS011;6674;49.152;11.918;2024-03-25T05:55:40;6.40;;;4.90;;
13218;SDS011;6674;49.152;11.918;2024-03-25T05:58:07;5.37;;;4.80;;
13218;SDS011;6674;49.152;11.918;2024-03-25T06:00:32;6.43;;;4.90;;
13218;SDS011;6674;49.152;11.918;2024-03-25T06:02:57;5.30;;;4.80;;
13218;SDS011;6674;49.152;11.918;2024-03-25T06:05:23;5.07;;;4.63;;
13218;SDS011;6674;49.152;11.918;2024-03-25T06:07:50;5.00;;;4.50;;
13218;SDS011;6674;49.152;11.918;2024-03-25T06:10:16;6.10;;;5.07;;
13218;SDS011;6674;49.152;11.918;2024-03-25T06:12:42;5.30;;;4.80;;
13218;SDS011;6674;49.152;11.918;2024-03-25T06:15:07;7.40;;;4.40;;
13218;SDS011;6674;49.152;11.918;2024-03-25T06:17:33;5.13;;;4.63;;
13218;SDS011;6674;49.152;11.918;2024-03-25T06:19:58;6.43;;;5.67;;
13218;SDS011;6674;49.152;11.918;2024-03-25T06:22:24;6.57;;;4.80;;
13218;SDS011;6674;49.152;11.918;2024-03-25T06:24:51;6.30;;;5.17;;
13218;SDS011;6674;49.152;11.918;2024-03-25T06:27:16;5.87;;;4.90;;
13218;SDS011;6674;49.152;11.918;2024-03-25T06:29:42;7.97;;;4.83;;
13218;SDS011;6674;49.152;11.918;2024-03-25T06:32:07;6.60;;;5.20;;
13218;SDS011;6674;49.152;11.918;2024-03-25T06:34:48;7.90;;;5.03;;
13218;SDS011;6674;49.152;11.918;2024-03-25T06:37:13;5.90;;;4.93;;
13218;SDS011;6674;49.152;11.918;2024-03-25T06:39:39;6.30;;;4.63;;
13218;SDS011;6674;49.152;11.918;2024-03-25T06:42:06;5.60;;;4.90;;
13218;SDS011;6674;49.152;11.918;2024-03-25T06:44:31;6.30;;;4.67;;
13218;SDS011;6674;49.152;11.918;2024-03-25T06:46:57;7.60;;;4.47;;
13218;SDS011;6674;49.152;11.918;2024-03-25T06:49:22;6.77;;;5.30;;
13218;SDS011;6674;49.152;11.918;2024-03-25T06:51:48;7.03;;;5.20;;
13218;SDS011;6674;49.152;11.918;2024-03-25T06:54:13;7.17;;;4.90;;
13218;SDS011;6674;49.152;11.918;2024-03-25T06:56:39;5.37;;;4.03;;
13218;SDS011;6674;49.152;11.918;2024-03-25T06:59:06;6.30;;;4.40;;
13218;SDS011;6674;49.152;11.918;2024-03-25T07:01:31;6.37;;;5.07;;
13218;SDS011;6674;49.152;11.918;2024-03-25T07:03:57;7.47;;;4.70;;
13218;SDS011;6674;49.152;11.918;2024-03-25T07:06:23;4.90;;;4.40;;
13218;SDS011;6674;49.152;11.918;2024-03-25T07:08:48;6.30;;;4.60;;
13218;SDS011;6674;49.152;11.918;2024-03-25T07:11:14;4.97;;;4.47;;
13218;SDS011;6674;49.152;11.918;2024-03-25T07:13:39;4.90;;;4.40;;
13218;SDS011;6674;49.152;11.918;2024-03-25T07:16:06;6.00;;;4.60;;
13218;SDS011;6674;49.152;11.918;2024-03-25T07:18:32;6.40;;;4.33;;
13218;SDS011;6674;49.152;11.918;2024-03-25T07:20:57;6.37;;;4.27;;
13218;SDS011;6674;49.152;11.918;2024-03-25T07:23:22;6.20;;;4.60;;
13218;SDS011;6674;49.152;11.918;2024-03-25T07:25:48;4.77;;;4.20;;
13218;SDS011;6674;49.152;11.918;2024-03-25T07:28:13;6.40;;;4.40;;
13218;SDS011;6674;49.152;11.918;2024-03-25T07:30:39;6.30;;;4.10;;
13218;SDS011;6674;49.152;11.918;2024-03-25T07:33:06;5.07;;;3.50;;
13218;SDS011;6674;49.152;11.918;2024-03-25T07:35:31;5.73;;;3.60;;
13218;SDS011;6674;49.152;11.918;2024-03-25T07:37:56;5.00;;;3.80;;
13218;SDS011;6674;49.152;11.918;2024-03-25T07:40:22;4.90;;;3.80;;
13218;SDS011;6674;49.152;11.918;2024-03-25T07:42:48;5.27;;;3.87;;
13218;SDS011;6674;49.152;11.918;2024-03-25T07:45:14;5.40;;;4.20;;
13218;SDS011;6674;49.152;11.918;2024-03-25T07:47:40;5.40;;;3.73;;
13218;SDS011;6674;49.152;11.918;2024-03-25T07:50:07;4.43;;;3.50;;
13218;SDS011;6674;49.152;11.918;2024-03-25T07:52:33;5.37;;;3.67;;
13218;SDS011;6674;49.152;11.918;2024-03-25T07:54:58;4.93;;;3.67;;
13218;SDS011;6674;49.152;11.918;2024-03-25T07:57:24;4.83;;;3.47;;
13218;SDS011;6674;49.152;11.918;2024-03-25T07:59:49;5.07;;;3.60;;
13218;SDS011;6674;49.152;11.918;2024-03-25T08:02:15;5.93;;;3.40;;
13218;SDS011;6674;49.152;11.918;2024-03-25T08:04:40;5.03;;;3.50;;
13218;SDS011;6674;49.152;11.918;2024-03-25T08:07:07;4.87;;;3.03;;
13218;SDS011;6674;49.152;11.918;2024-03-25T08:09:33;6.77;;;3.30;;
13218;SDS011;6674;49.152;11.918;2024-03-25T08:11:58;5.33;;;3.07;;
13218;SDS011;6674;49.152;11.918;2024-03-25T08:14:24;4.03;;;2.40;;
13218;SDS011;6674;49.152;11.918;2024-03-25T08:16:49;4.27;;;2.70;;
13218;SDS011;6674;49.152;11.918;2024-03-25T08:19:15;5.27;;;2.60;;
13218;SDS011;6674;49.152;11.918;2024-03-25T08:21:40;4.17;;;2.43;;
13218;SDS011;6674;49.152;11.918;2024-03-25T08:24:07;5.13;;;2.73;;
13218;SDS011;6674;49.152;11.918;2024-03-25T08:26:33;4.67;;;2.90;;
13218;SDS011;6674;49.152;11.918;2024-03-25T08:28:58;4.03;;;2.90;;
13218;SDS011;6674;49.152;11.918;2024-03-25T08:31:24;3.80;;;2.30;;
13218;SDS011;6674;49.152;11.918;2024-03-25T08:33:49;4.50;;;3.10;;
13218;SDS011;6674;49.152;11.918;2024-03-25T08:36:15;3.30;;;2.83;;
13218;SDS011;6674;49.152;11.918;2024-03-25T08:38:41;4.40;;;2.70;;
13218;SDS011;6674;49.152;11.918;2024-03-25T08:41:07;4.10;;;2.50;;
13218;SDS011;6674;49.152;11.918;2024-03-25T08:43:33;3.50;;;1.90;;
13218;SDS011;6674;49.152;11.918;2024-03-25T08:45:58;2.60;;;1.83;;
13218;SDS011;6674;49.152;11.918;2024-03-25T08:48:24;1.70;;;1.57;;
13218;SDS011;6674;49.152;11.918;2024-03-25T08:50:49;2.10;;;1.63;;
13218;SDS011;6674;49.152;11.918;2024-03-25T08:53:15;4.63;;;2.20;;
13218;SDS011;6674;49.152;11.918;2024-03-25T08:55:43;2.97;;;1.87;;
13218;SDS011;6674;49.152;11.918;2024-03-25T08:58:10;4.13;;;2.57;;
13218;SDS011;6674;49.152;11.918;2024-03-25T09:00:35;3.77;;;2.10;;
13218;SDS011;6674;49.152;11.918;2024-03-25T09:03:01;4.43;;;2.50;;
13218;SDS011;6674;49.152;11.918;2024-03-25T09:05:26;2.03;;;1.80;;
13218;SDS011;6674;49.152;11.918;2024-03-25T09:07:52;3.37;;;1.90;;
13218;SDS011;6674;49.152;11.918;2024-03-25T09:10:17;3.00;;;2.43;;
13218;SDS011;6674;49.152;11.918;2024-03-25T09:13:02;2.87;;;1.90;;
13218;SDS011;6674;49.152;11.918;2024-03-25T09:15:29;4.03;;;1.30;;
13218;SDS011;6674;49.152;11.918;2024-03-25T09:17:54;4.13;;;1.60;;
13218;SDS011;6674;49.152;11.918;2024-03-25T09:20:20;2.07;;;1.40;;
13218;SDS011;6674;49.152;11.918;2024-03-25T09:22:45;2.40;;;1.63;;
13218;SDS011;6674;49.152;11.918;2024-03-25T09:25:11;2.57;;;1.40;;
13218;SDS011;6674;49.152;11.918;2024-03-25T09:27:36;3.53;;;2.10;;
13218;SDS011;6674;49.152;11.918;2024-03-25T09:30:02;4.33;;;1.70;;
13218;SDS011;6674;49.152;11.918;2024-03-25T09:32:29;2.87;;;1.90;;
13218;SDS011;6674;49.152;11.918;2024-03-25T09:34:55;3.97;;;1.60;;
13218;SDS011;6674;49.152;11.918;2024-03-25T09:37:20;3.00;;;1.60;;
13218;SDS011;6674;49.152;11.918;2024-03-25T09:39:47;2.33;;;1.40;;
13218;SDS011;6674;49.152;11.918;2024-03-25T09:42:14;3.13;;;1.40;;
13218;SDS011;6674;49.152;11.918;2024-03-25T09:44:39;2.17;;;1.50;;
13218;SDS011;6674;49.152;11.918;2024-03-25T09:47:05;3.67;;;1.80;;
13218;SDS011;6674;49.152;11.918;2024-03-25T09:49:33;1.97;;;1.30;;
13218;SDS011;6674;49.152;11.918;2024-03-25T09:51:59;1.43;;;1.33;;
13218;SDS011;6674;49.152;11.918;2024-03-25T09:54:24;1.67;;;1.37;;
13218;SDS011;6674;49.152;11.918;2024-03-25T09:56:50;2.77;;;1.63;;
13218;SDS011;6674;49.152;11.918;2024-03-25T09:59:16;2.77;;;1.60;;
13218;SDS011;6674;49.152;11.918;2024-03-25T10:01:42;1.70;;;1.60;;
13218;SDS011;6674;49.152;11.918;2024-03-25T10:04:07;2.93;;;1.73;;
13218;SDS011;6674;49.152;11.918;2024-03-25T10:06:34;2.03;;;1.60;;
13218;SDS011;6674;49.152;11.918;2024-03-25T10:09:00;2.30;;;1.50;;
13218;SDS011;6674;49.152;11.918;2024-03-25T10:11:25;2.77;;;1.60;;
13218;SDS011;6674;49.152;11.918;2024-03-25T10:13:51;1.60;;;1.50;;
13218;SDS011;6674;49.152;11.918;2024-03-25T10:16:16;3.60;;;1.90;;
13218;SDS011;6674;49.152;11.918;2024-03-25T10:18:42;2.47;;;1.67;;
13218;SDS011;6674;49.152;11.918;2024-03-25T10:21:09;2.93;;;1.57;;
13218;SDS011;6674;49.152;11.918;2024-03-25T10:23:36;2.40;;;1.57;;
13218;SDS011;6674;49.152;11.918;2024-03-25T10:26:01;2.70;;;1.77;;
13218;SDS011;6674;49.152;11.918;2024-03-25T10:28:27;1.27;;;1.20;;
13218;SDS011;6674;49.152;11.918;2024-03-25T10:30:52;1.90;;;1.50;;
13218;SDS011;6674;49.152;11.918;2024-03-25T10:33:18;2.23;;;1.77;;
13218;SDS011;6674;49.152;11.918;2024-03-25T10:35:43;2.93;;;1.93;;
13218;SDS011;6674;49.152;11.918;2024-03-25T10:38:10;2.63;;;1.90;;
13218;SDS011;6674;49.152;11.918;2024-03-25T10:40:37;2.57;;;1.63;;
13218;SDS011;6674;49.152;11.918;2024-03-25T10:43:04;2.00;;;1.47;;
13218;SDS011;6674;49.152;11.918;2024-03-25T10:45:30;2.20;;;1.80;;
13218;SDS011;6674;49.152;11.918;2024-03-25T10:47:57;2.10;;;1.83;;
13218;SDS011;6674;49.152;11.918;2024-03-25T10:50:23;4.03;;;2.57;;
13218;SDS011;6674;49.152;11.918;2024-03-25T10:52:50;2.60;;;2.03;;
13218;SDS011;6674;49.152;11.918;2024-03-25T10:55:16;3.63;;;2.00;;
13218;SDS011;6674;49.152;11.918;2024-03-25T10:57:43;2.17;;;2.03;;
13218;SDS011;6674;49.152;11.918;2024-03-25T11:00:09;2.10;;;1.80;;
13218;SDS011;6674;49.152;11.918;2024-03-25T11:02:36;2.07;;;1.73;;
13218;SDS011;6674;49.152;11.918;2024-03-25T11:05:02;3.07;;;1.80;;
13218;SDS011;6674;49.152;11.918;2024-03-25T11:07:30;3.37;;;2.10;;
13218;SDS011;6674;49.152;11.918;2024-03-25T11:10:02;1.93;;;1.77;;
13218;SDS011;6674;49.152;11.918;2024-03-25T11:12:31;2.60;;;1.70;;
13218;SDS011;6674;49.152;11.918;2024-03-25T11:15:00;2.10;;;1.73;;
13218;SDS011;6674;49.152;11.918;2024-03-25T11:17:26;2.73;;;1.97;;
13218;SDS011;6674;49.152;11.918;2024-03-25T11:19:51;2.83;;;1.80;;
13218;SDS011;6674;49.152;11.918;2024-03-25T11:22:23;2.97;;;2.20;;
13218;SDS011;6674;49.152;11.918;2024-03-25T11:24:49;2.47;;;2.07;;
13218;SDS011;6674;49.152;11.918;2024-03-25T11:27:14;2.77;;;1.70;;
13218;SDS011;6674;49.152;11.918;2024-03-25T11:29:40;3.40;;;2.27;;
13218;SDS011;6674;49.152;11.918;2024-03-25T11:32:08;2.53;;;1.97;;
13218;SDS011;6674;49.152;11.918;2024-03-25T11:34:35;2.27;;;1.90;;
13218;SDS011;6674;49.152;11.918;2024-03-25T11:37:00;2.57;;;2.00;;
13218;SDS011;6674;49.152;11.918;2024-03-25T11:39:26;2.23;;;2.07;;
13218;SDS011;6674;49.152;11.918;2024-03-25T11:41:51;3.10;;;1.67;;
13218;SDS011;6674;49.152;11.918;2024-03-25T11:44:17;2.53;;;1.77;;
13218;SDS011;6674;49.152;11.918;2024-03-25T11:46:42;2.30;;;1.80;;
13218;SDS011;6674;49.152;11.918;2024-03-25T11:49:11;3.40;;;2.07;;
13218;SDS011;6674;49.152;11.918;2024-03-25T11:51:37;2.37;;;1.70;;
13218;SDS011;6674;49.152;11.918;2024-03-25T11:54:03;4.73;;;2.50;;
13218;SDS011;6674;49.152;11.918;2024-03-25T11:56:30;2.27;;;2.07;;
13218;SDS011;6674;49.152;11.918;2024-03-25T11:58:56;2.20;;;2.03;;
13218;SDS011;6674;49.152;11.918;2024-03-25T12:01:22;1.80;;;1.70;;
13218;SDS011;6674;49.152;11.918;2024-03-25T12:03:47;3.40;;;2.30;;
13218;SDS011;6674;49.152;11.918;2024-03-25T12:06:14;2.33;;;1.93;;
13218;SDS011;6674;49.152;11.918;2024-03-25T12:08:39;2.93;;;2.20;;
13218;SDS011;6674;49.152;11.918;2024-03-25T12:11:06;2.50;;;2.00;;
13218;SDS011;6674;49.152;11.918;2024-03-25T12:13:44;2.73;;;2.03;;
13218;SDS011;6674;49.152;11.918;2024-03-25T12:16:10;2.60;;;2.20;;
13218;SDS011;6674;49.152;11.918;2024-03-25T12:18:35;2.10;;;2.00;;
13218;SDS011;6674;49.152;11.918;2024-03-25T12:21:01;2.73;;;2.10;;
13218;SDS011;6674;49.152;11.918;2024-03-25T12:23:32;2.83;;;2.30;;
13218;SDS011;6674;49.152;11.918;2024-03-25T12:25:58;1.87;;;1.77;;
13218;SDS011;6674;49.152;11.918;2024-03-25T12:28:23;3.17;;;2.07;;
13218;SDS011;6674;49.152;11.918;2024-03-25T12:30:50;3.30;;;2.10;;
13218;SDS011;6674;49.152;11.918;2024-03-25T12:33:15;3.87;;;2.30;;
13218;SDS011;6674;49.152;11.918;2024-03-25T12:35:41;4.10;;;2.13;;
13218;SDS011;6674;49.152;11.918;2024-03-25T12:38:06;2.17;;;1.80;;
13218;SDS011;6674;49.152;11.918;2024-03-25T12:40:33;2.53;;;1.90;;
13218;SDS011;6674;49.152;11.918;2024-03-25T12:42:59;2.20;;;2.00;;
13218;SDS011;6674;49.152;11.918;2024-03-25T12:45:24;1.90;;;1.80;;
13218;SDS011;6674;49.152;11.918;2024-03-25T12:47:50;1.90;;;1.80;;
13218;SDS011;6674;49.152;11.918;2024-03-25T12:50:15;2.60;;;2.33;;
13218;SDS011;6674;49.152;11.918;2024-03-25T12:52:41;2.70;;;2.10;;
13218;SDS011;6674;49.152;11.918;2024-03-25T12:55:07;2.50;;;2.30;;
13218;SDS011;6674;49.152;11.918;2024-03-25T12:57:34;2.33;;;2.17;;
13218;SDS011;6674;49.152;11.918;2024-03-25T13:00:00;4.07;;;2.70;;
13218;SDS011;6674;49.152;11.918;2024-03-25T13:02:26;2.23;;;2.03;;
13218;SDS011;6674;49.152;11.918;2024-03-25T13:04:51;2.07;;;1.80;;
13218;SDS011;6674;49.152;11.918;2024-03-25T13:07:18;3.57;;;2.27;;
13218;SDS011;6674;49.152;11.918;2024-03-25T13:09:44;2.30;;;2.10;;
13218;SDS011;6674;49.152;11.918;2024-03-25T13:12:09;2.97;;;2.40;;
13218;SDS011;6674;49.152;11.918;2024-03-25T13:14:36;1.80;;;1.70;;
13218;SDS011;6674;49.152;11.918;2024-03-25T13:17:02;2.40;;;2.20;;
13218;SDS011;6674;49.152;11.918;2024-03-25T13:19:29;2.97;;;2.23;;
13218;SDS011;6674;49.152;11.918;2024-03-25T13:21:55;2.90;;;2.50;;
13218;SDS011;6674;49.152;11.918;2024-03-25T13:24:20;2.70;;;2.20;;
13218;SDS011;6674;49.152;11.918;2024-03-25T13:26:46;1.93;;;1.80;;
13218;SDS011;6674;49.152;11.918;2024-03-25T13:29:11;2.03;;;1.83;;
13218;SDS011;6674;49.152;11.918;2024-03-25T13:31:38;2.03;;;1.67;;
13218;SDS011;6674;49.152;11.918;2024-03-25T13:34:03;2.47;;;2.00;;
13218;SDS011;6674;49.152;11.918;2024-03-25T13:36:31;2.60;;;1.90;;
13218;SDS011;6674;49.152;11.918;2024-03-25T13:38:57;2.20;;;1.93;;
13218;SDS011;6674;49.152;11.918;2024-03-25T13:41:23;2.40;;;2.07;;
13218;SDS011;6674;49.152;11.918;2024-03-25T13:43:48;2.37;;;2.00;;
13218;SDS011;6674;49.152;11.918;2024-03-25T13:46:14;2.67;;;2.00;;
13218;SDS011;6674;49.152;11.918;2024-03-25T13:48:40;1.80;;;1.70;;
13218;SDS011;6674;49.152;11.918;2024-03-25T13:51:06;2.30;;;2.10;;
13218;SDS011;6674;49.152;11.918;2024-03-25T13:53:31;2.27;;;2.07;;
13218;SDS011;6674;49.152;11.918;2024-03-25T13:55:57;3.23;;;2.30;;
13218;SDS011;6674;49.152;11.918;2024-03-25T13:58:22;1.93;;;1.83;;
13218;SDS011;6674;49.152;11.918;2024-03-25T14:00:48;2.37;;;2.17;;
13218;SDS011;6674;49.152;11.918;2024-03-25T14:03:14;2.13;;;1.80;;
13218;SDS011;6674;49.152;11.918;2024-03-25T14:05:40;2.77;;;1.97;;
13218;SDS011;6674;49.152;11.918;2024-03-25T14:08:06;2.47;;;1.70;;
13218;SDS011;6674;49.152;11.918;2024-03-25T14:10:31;2.30;;;2.10;;
13218;SDS011;6674;49.152;11.918;2024-03-25T14:12:57;1.80;;;1.70;;
13218;SDS011;6674;49.152;11.918;2024-03-25T14:15:22;2.20;;;1.83;;
13218;SDS011;6674;49.152;11.918;2024-03-25T14:17:48;2.67;;;2.00;;
13218;SDS011;6674;49.152;11.918;2024-03-25T14:20:13;2.43;;;1.80;;
13218;SDS011;6674;49.152;11.918;2024-03-25T14:22:40;1.90;;;1.80;;
13218;SDS011;6674;49.152;11.918;2024-03-25T14:25:06;2.30;;;2.10;;
13218;SDS011;6674;49.152;11.918;2024-03-25T14:27:32;2.20;;;1.63;;
13218;SDS011;6674;49.152;11.918;2024-03-25T14:29:57;1.70;;;1.57;;
13218;SDS011;6674;49.152;11.918;2024-03-25T14:32:23;2.27;;;1.87;;
13218;SDS011;6674;49.152;11.918;2024-03-25T14:34:49;1.37;;;1.20;;
13218;SDS011;6674;49.152;11.918;2024-03-25T14:37:14;1.90;;;1.70;;
13218;SDS011;6674;49.152;11.918;2024-03-25T14:39:41;1.70;;;1.60;;
13218;SDS011;6674;49.152;11.918;2024-03-25T14:42:07;1.93;;;1.80;;